Terminal Aerodrome Forecast
Issued by NWS Sioux Falls, SD

Home | Current Version | Previous Version | Text Only | Print | Product List | Glossary Off
Versions: 1 2 3 4 5 6 7 8 9 10 11 12 13 14 15 16 17 18

000
FTUS43 KFSD 061732
TAFHON
TAF
KHON 061732Z 0618/0718 30030G40KT P6SM BKN030
      TEMPO 0618/0622 5SM -SN
     FM070300 30020G28KT P6SM SCT030
     FM071400 31020G28KT P6SM SCT035 BKN090=

USA.gov is the U.S. government's official web portal to all federal, state and local government web resources and services.